createdAt,value
2022-08-02T00:00:08.102Z,56.50
2022-08-02T00:02:34.630Z,56.50
2022-08-02T00:05:01.163Z,56.40
2022-08-02T00:07:27.690Z,56.60
2022-08-02T00:09:54.485Z,56.40
2022-08-02T00:12:20.995Z,56.30
2022-08-02T00:14:47.509Z,56.30
2022-08-02T00:17:14.027Z,56.20
2022-08-02T00:19:40.557Z,56.10
2022-08-02T00:22:07.088Z,56.20
2022-08-02T00:24:33.592Z,56.20
2022-08-02T00:27:00.115Z,56.20
2022-08-02T00:29:26.630Z,56.10
2022-08-02T00:31:53.166Z,57.00
2022-08-02T00:34:28.988Z,56.30
2022-08-02T00:36:57.646Z,56.20
2022-08-02T00:39:34.004Z,56.10
2022-08-02T00:42:00.872Z,56.20
2022-08-02T00:44:30.548Z,56.20
2022-08-02T00:46:57.080Z,56.20
2022-08-02T00:49:23.662Z,56.10
2022-08-02T00:51:50.993Z,56.10
2022-08-02T00:54:17.934Z,56.00
2022-08-02T00:56:49.611Z,56.10
2022-08-02T00:59:16.428Z,56.00
2022-08-02T01:01:56.541Z,56.00
2022-08-02T01:04:29.922Z,56.00
2022-08-02T01:06:58.186Z,55.90
2022-08-02T01:09:24.708Z,55.90
2022-08-02T01:11:51.327Z,55.90
2022-08-02T01:14:17.882Z,55.90
2022-08-02T01:16:44.400Z,55.90
2022-08-02T01:19:15.965Z,55.90
2022-08-02T01:21:42.747Z,55.90
2022-08-02T01:24:09.458Z,55.90
2022-08-02T01:26:36.004Z,55.80
2022-08-02T01:29:02.539Z,55.80
2022-08-02T01:31:29.053Z,55.80
2022-08-02T01:33:55.572Z,55.70
2022-08-02T01:36:22.085Z,56.00
2022-08-02T01:38:48.607Z,55.80
2022-08-02T01:41:15.129Z,55.70
2022-08-02T01:43:41.662Z,55.70
2022-08-02T01:46:08.184Z,55.80
2022-08-02T01:48:34.735Z,55.60
2022-08-02T01:51:01.243Z,55.70
2022-08-02T01:53:27.792Z,55.50
2022-08-02T01:55:57.874Z,55.60
2022-08-02T01:58:25.155Z,55.50
2022-08-02T02:00:51.740Z,55.50
2022-08-02T02:03:18.348Z,55.50
2022-08-02T02:05:44.866Z,55.50
2022-08-02T02:08:11.430Z,55.50
2022-08-02T02:10:37.969Z,55.50
2022-08-02T02:13:04.518Z,55.40
2022-08-02T02:15:36.642Z,55.30
2022-08-02T02:18:12.352Z,55.30
2022-08-02T02:20:40.175Z,55.30
2022-08-02T02:23:06.692Z,55.30
2022-08-02T02:25:36.447Z,55.20
2022-08-02T02:28:08.169Z,55.20
2022-08-02T02:30:34.683Z,55.30
2022-08-02T02:33:01.215Z,55.30
2022-08-02T02:35:27.746Z,55.30
2022-08-02T02:37:54.261Z,55.20
2022-08-02T02:40:20.792Z,55.30
2022-08-02T02:42:49.505Z,55.30
2022-08-02T02:45:16.175Z,55.20
2022-08-02T02:47:42.689Z,55.20
2022-08-02T02:50:09.222Z,55.20
2022-08-02T02:52:35.761Z,55.00
2022-08-02T02:55:03.185Z,55.10
2022-08-02T02:57:29.707Z,55.20
2022-08-02T02:59:56.245Z,55.10
2022-08-02T03:02:24.651Z,55.10
2022-08-02T03:04:57.137Z,55.00
2022-08-02T03:07:24.441Z,55.00
2022-08-02T03:09:54.469Z,54.90
2022-08-02T03:12:21.404Z,55.00
2022-08-02T03:14:49.183Z,54.90
2022-08-02T03:17:16.061Z,54.90
2022-08-02T03:19:42.580Z,54.90
2022-08-02T03:22:09.309Z,54.90
2022-08-02T03:24:36.039Z,54.80
2022-08-02T03:27:02.567Z,54.90
2022-08-02T03:29:34.010Z,54.80
2022-08-02T03:32:01.066Z,54.80
2022-08-02T03:34:27.612Z,54.80
2022-08-02T03:36:54.670Z,54.80
2022-08-02T03:39:21.232Z,54.80
2022-08-02T03:41:47.756Z,54.80
2022-08-02T03:44:18.711Z,54.70
2022-08-02T03:46:45.227Z,54.70
2022-08-02T03:49:11.832Z,54.70
2022-08-02T03:51:38.356Z,54.60
2022-08-02T03:54:04.870Z,54.70
2022-08-02T03:56:31.392Z,54.70
2022-08-02T03:58:57.901Z,54.60
2022-08-02T04:01:24.464Z,54.60
2022-08-02T04:03:51.052Z,54.60
2022-08-02T04:06:17.580Z,54.70
2022-08-02T04:08:53.642Z,54.70
2022-08-02T04:11:20.167Z,54.60
2022-08-02T04:13:46.677Z,54.70
2022-08-02T04:16:14.964Z,54.70
2022-08-02T04:18:41.476Z,54.70
2022-08-02T04:21:07.993Z,54.60
2022-08-02T04:23:34.501Z,54.60
2022-08-02T04:26:02.219Z,54.70
2022-08-02T04:28:31.005Z,54.70
2022-08-02T04:31:00.754Z,54.60
2022-08-02T04:33:27.255Z,54.50
2022-08-02T04:35:59.261Z,54.50
2022-08-02T04:38:26.155Z,54.50
2022-08-02T04:40:52.688Z,54.60
2022-08-02T04:43:19.205Z,54.60
2022-08-02T04:45:45.739Z,54.50
2022-08-02T04:48:12.267Z,54.60
2022-08-02T04:50:38.813Z,54.50
2022-08-02T04:53:05.321Z,54.70
2022-08-02T04:55:31.870Z,54.60
2022-08-02T04:57:58.593Z,54.60
2022-08-02T05:00:25.366Z,54.30
2022-08-02T05:02:51.950Z,54.10
2022-08-02T05:05:18.488Z,54.10
2022-08-02T05:07:45.005Z,54.10
2022-08-02T05:10:11.544Z,54.00
2022-08-02T05:12:38.082Z,53.90
2022-08-02T05:15:04.638Z,53.90
2022-08-02T05:17:31.167Z,54.00
2022-08-02T05:19:57.683Z,53.90
2022-08-02T05:22:24.200Z,53.90
2022-08-02T05:24:50.740Z,53.80
2022-08-02T05:27:21.644Z,54.00
2022-08-02T05:29:53.014Z,53.90
2022-08-02T05:32:20.452Z,54.00
2022-08-02T05:34:50.212Z,53.90
2022-08-02T05:37:16.736Z,53.90
2022-08-02T05:39:55.771Z,53.90
2022-08-02T05:42:22.876Z,54.00
2022-08-02T05:44:49.382Z,54.00
2022-08-02T05:47:15.888Z,54.00
2022-08-02T05:49:42.427Z,54.00
2022-08-02T05:52:09.272Z,53.90
2022-08-02T05:54:38.466Z,53.90
2022-08-02T05:57:06.009Z,53.90
2022-08-02T05:59:32.532Z,54.00
2022-08-02T06:01:59.242Z,54.00
2022-08-02T06:04:25.837Z,54.60
2022-08-02T06:06:52.365Z,54.00
2022-08-02T06:09:23.078Z,54.00
2022-08-02T06:12:02.661Z,54.00
2022-08-02T06:14:30.586Z,54.00
2022-08-02T06:16:57.374Z,54.10
2022-08-02T06:19:23.883Z,54.00
2022-08-02T06:22:32.597Z,54.00
2022-08-02T06:24:36.890Z,54.00
2022-08-02T06:27:03.415Z,54.00
2022-08-02T06:29:29.947Z,54.10
2022-08-02T06:31:56.481Z,54.10
2022-08-02T06:34:23.008Z,54.10
2022-08-02T06:36:49.536Z,54.10
2022-08-02T06:39:16.052Z,54.10
2022-08-02T06:41:42.680Z,54.20
2022-08-02T06:44:45.245Z,54.20
2022-08-02T06:47:11.090Z,54.20
2022-08-02T06:49:51.773Z,54.20
2022-08-02T06:52:24.299Z,54.20
2022-08-02T06:54:54.095Z,54.30
2022-08-02T06:57:20.621Z,54.30
2022-08-02T06:59:47.128Z,54.30
2022-08-02T07:02:13.916Z,54.40
2022-08-02T07:04:40.717Z,54.40
2022-08-02T07:07:07.248Z,54.50
2022-08-02T07:09:33.778Z,54.50
2022-08-02T07:12:00.320Z,54.40
2022-08-02T07:14:26.839Z,54.40
2022-08-02T07:16:53.366Z,54.40
2022-08-02T07:19:19.869Z,54.40
2022-08-02T07:21:56.648Z,54.40
2022-08-02T07:24:27.203Z,54.40
2022-08-02T07:27:10.835Z,54.30
2022-08-02T07:29:45.165Z,54.40
2022-08-02T07:32:13.847Z,54.40
2022-08-02T07:34:40.693Z,54.30
2022-08-02T07:37:35.379Z,54.40
2022-08-02T07:39:59.478Z,54.40
2022-08-02T07:42:26.005Z,54.40
2022-08-02T07:44:52.529Z,54.40
2022-08-02T07:47:19.047Z,54.40
2022-08-02T07:49:45.571Z,54.20
2022-08-02T07:52:12.514Z,54.20
2022-08-02T07:54:39.238Z,54.00
2022-08-02T07:57:05.777Z,53.90
2022-08-02T07:59:32.294Z,53.90
2022-08-02T08:01:58.859Z,53.80
2022-08-02T08:04:25.408Z,53.90
2022-08-02T08:06:51.951Z,53.80
2022-08-02T08:09:18.479Z,53.80
2022-08-02T08:11:45.003Z,53.70
2022-08-02T08:14:16.511Z,53.70
2022-08-02T08:16:43.474Z,53.70
2022-08-02T08:19:09.985Z,53.60
2022-08-02T08:21:36.522Z,53.70
2022-08-02T08:24:03.032Z,53.70
2022-08-02T08:26:29.568Z,53.70
2022-08-02T08:28:56.071Z,53.80
2022-08-02T08:31:22.600Z,53.60
2022-08-02T08:33:49.117Z,53.80
2022-08-02T08:36:15.634Z,53.60
2022-08-02T08:38:42.197Z,53.80
2022-08-02T08:41:08.734Z,53.80
2022-08-02T08:43:35.249Z,53.80
2022-08-02T08:46:01.786Z,53.70
2022-08-02T08:48:31.083Z,53.70
2022-08-02T08:50:58.342Z,53.70
2022-08-02T08:53:36.438Z,53.70
2022-08-02T08:56:03.536Z,53.80
2022-08-02T08:58:30.060Z,53.80
2022-08-02T09:00:56.678Z,53.80
2022-08-02T09:03:23.246Z,53.70
2022-08-02T09:05:49.801Z,53.70
2022-08-02T09:08:17.133Z,53.80
2022-08-02T09:10:43.790Z,53.70
2022-08-02T09:13:37.898Z,53.90
2022-08-02T09:15:57.135Z,53.80
2022-08-02T09:18:23.672Z,53.80
2022-08-02T09:20:50.216Z,53.90
2022-08-02T09:23:16.759Z,53.90
2022-08-02T09:25:43.284Z,53.90
2022-08-02T09:28:26.116Z,54.10
2022-08-02T09:30:52.634Z,53.90
2022-08-02T09:33:19.177Z,54.00
2022-08-02T09:36:07.210Z,54.00
2022-08-02T09:38:32.213Z,54.20
2022-08-02T09:40:58.733Z,54.10
2022-08-02T09:43:25.256Z,54.10
2022-08-02T09:45:51.769Z,54.10
2022-08-02T09:48:18.294Z,54.10
2022-08-02T09:50:44.809Z,54.00
2022-08-02T09:53:11.338Z,54.10
2022-08-02T09:55:37.886Z,54.10
2022-08-02T09:58:04.424Z,54.00
2022-08-02T10:00:51.624Z,54.00
2022-08-02T10:03:21.871Z,54.10
2022-08-02T10:05:55.484Z,54.10
2022-08-02T10:08:23.881Z,54.10
2022-08-02T10:10:50.435Z,54.10
2022-08-02T10:13:21.936Z,54.00
2022-08-02T10:15:50.511Z,54.00
2022-08-02T10:18:37.072Z,54.10
2022-08-02T10:21:07.063Z,54.00
2022-08-02T10:23:33.577Z,54.10
2022-08-02T10:26:00.352Z,54.10
2022-08-02T10:28:27.036Z,54.10
2022-08-02T10:30:53.565Z,54.10
2022-08-02T10:33:20.102Z,54.10
2022-08-02T10:35:46.657Z,54.10
2022-08-02T10:38:31.211Z,54.10
2022-08-02T10:40:57.755Z,54.20
2022-08-02T10:43:24.283Z,54.30
2022-08-02T10:45:50.893Z,54.20
2022-08-02T10:48:17.432Z,54.30
2022-08-02T10:50:43.948Z,54.30
2022-08-02T10:53:10.494Z,54.40
2022-08-02T10:55:37.003Z,54.40
2022-08-02T10:58:03.591Z,54.40
2022-08-02T11:00:30.104Z,54.60
2022-08-02T11:02:56.649Z,54.50
2022-08-02T11:05:23.157Z,54.50
2022-08-02T11:07:49.948Z,54.50
2022-08-02T11:10:16.595Z,54.50
2022-08-02T11:12:43.148Z,54.50
2022-08-02T11:15:13.130Z,54.50
2022-08-02T11:17:41.010Z,54.60
2022-08-02T11:20:07.754Z,54.60
2022-08-02T11:22:34.296Z,54.60
2022-08-02T11:25:00.835Z,54.60
2022-08-02T11:27:31.308Z,54.70
2022-08-02T11:30:01.097Z,54.80
2022-08-02T11:32:30.815Z,54.70
2022-08-02T11:34:57.931Z,54.80
2022-08-02T11:37:24.456Z,54.80
2022-08-02T11:39:51.001Z,54.80
2022-08-02T11:42:17.536Z,54.70
2022-08-02T11:44:44.072Z,54.70
2022-08-02T11:47:10.596Z,54.80
2022-08-02T11:49:37.211Z,54.80
2022-08-02T11:52:03.792Z,55.50
2022-08-02T11:54:30.323Z,54.90
2022-08-02T11:56:56.846Z,54.90
2022-08-02T11:59:23.378Z,54.90
2022-08-02T12:01:49.904Z,54.90
2022-08-02T12:04:16.463Z,54.90
2022-08-02T12:06:43.453Z,54.90
2022-08-02T12:09:17.807Z,54.80
2022-08-02T12:11:45.646Z,54.80
2022-08-02T12:14:12.166Z,54.90
2022-08-02T12:16:38.683Z,54.90
2022-08-02T12:19:05.213Z,54.90
2022-08-02T12:21:31.742Z,54.90
2022-08-02T12:24:01.000Z,54.90
2022-08-02T12:26:27.964Z,54.90
2022-08-02T12:28:54.486Z,55.00
2022-08-02T12:31:21.016Z,55.00
2022-08-02T12:33:47.534Z,54.90
2022-08-02T12:36:14.065Z,55.00
2022-08-02T12:38:40.894Z,55.00
2022-08-02T12:41:30.373Z,55.00
2022-08-02T12:43:55.101Z,55.00
2022-08-02T12:46:21.637Z,55.00
2022-08-02T12:49:08.418Z,55.00
2022-08-02T12:51:55.845Z,55.10
2022-08-02T12:54:27.427Z,55.10
2022-08-02T12:56:58.402Z,55.00
2022-08-02T12:59:24.921Z,55.00
2022-08-02T13:02:05.349Z,55.00
2022-08-02T13:04:31.911Z,55.00
2022-08-02T13:06:58.438Z,55.00
2022-08-02T13:09:29.263Z,55.00
2022-08-02T13:11:56.066Z,55.00
2022-08-02T13:14:22.579Z,55.00
2022-08-02T13:16:49.128Z,55.00
2022-08-02T13:19:15.705Z,55.00
2022-08-02T13:22:00.999Z,55.00
2022-08-02T13:24:40.892Z,54.90
2022-08-02T13:27:15.282Z,54.90
2022-08-02T13:29:41.794Z,54.90
2022-08-02T13:32:13.418Z,55.00
2022-08-02T13:34:40.199Z,54.90
2022-08-02T13:37:06.733Z,54.90
2022-08-02T13:39:33.258Z,54.90
2022-08-02T13:42:01.212Z,54.80
2022-08-02T13:44:27.755Z,54.80
2022-08-02T13:46:54.302Z,54.80
2022-08-02T13:49:22.011Z,54.80
2022-08-02T13:52:07.327Z,54.80
2022-08-02T13:54:33.841Z,54.80
2022-08-02T13:57:00.365Z,54.80
2022-08-02T13:59:56.876Z,54.70
2022-08-02T14:02:13.601Z,54.70
2022-08-02T14:04:44.964Z,54.70
2022-08-02T14:07:11.499Z,54.70
2022-08-02T14:09:38.068Z,54.60
2022-08-02T14:12:06.939Z,54.60
2022-08-02T14:14:33.459Z,54.40
2022-08-02T14:16:59.995Z,54.40
2022-08-02T14:19:28.497Z,54.30
2022-08-02T14:21:55.034Z,54.20
2022-08-02T14:24:37.209Z,54.00
2022-08-02T14:27:03.732Z,54.00
2022-08-02T14:29:30.245Z,54.00
2022-08-02T14:31:56.772Z,54.00
2022-08-02T14:34:23.274Z,53.90
2022-08-02T14:36:53.654Z,53.80
2022-08-02T14:39:20.691Z,53.80
2022-08-02T14:41:54.731Z,53.80
2022-08-02T14:44:25.323Z,53.80
2022-08-02T14:46:52.805Z,53.80
2022-08-02T14:49:25.075Z,53.80
2022-08-02T14:51:52.715Z,53.70
2022-08-02T14:54:19.275Z,54.20
2022-08-02T14:56:45.843Z,53.60
2022-08-02T14:59:14.835Z,53.60
2022-08-02T15:01:41.469Z,53.50
2022-08-02T15:04:08.111Z,53.50
2022-08-02T15:06:34.626Z,53.50
2022-08-02T15:09:01.143Z,53.40
2022-08-02T15:11:27.665Z,53.40
2022-08-02T15:13:54.186Z,53.30
2022-08-02T15:16:41.724Z,53.30
2022-08-02T15:19:11.854Z,53.30
2022-08-02T15:21:42.000Z,53.30
2022-08-02T15:24:21.281Z,53.90
2022-08-02T15:26:47.786Z,53.20
2022-08-02T15:29:14.322Z,53.20
2022-08-02T15:31:41.868Z,53.30
2022-08-02T15:34:08.472Z,53.20
2022-08-02T15:36:34.987Z,53.20
2022-08-02T15:39:01.518Z,53.20
2022-08-02T15:41:28.025Z,53.20
2022-08-02T15:44:00.826Z,53.20
2022-08-02T15:46:32.128Z,53.10
2022-08-02T15:48:59.704Z,53.10
2022-08-02T15:51:26.591Z,53.00
2022-08-02T15:53:53.113Z,53.00
2022-08-02T15:56:24.128Z,52.90
2022-08-02T15:58:56.839Z,52.80
2022-08-02T16:04:13.393Z,53.50
2022-08-02T16:06:43.592Z,53.10
2022-08-02T16:09:13.435Z,52.90
2022-08-02T16:11:43.523Z,52.80
2022-08-02T16:14:10.062Z,52.80
2022-08-02T16:16:36.588Z,52.80
2022-08-02T16:19:45.907Z,53.00
2022-08-02T16:21:49.598Z,53.00
2022-08-02T16:24:16.118Z,52.90
2022-08-02T16:26:42.645Z,52.80
2022-08-02T16:29:09.181Z,52.80
2022-08-02T16:31:38.698Z,52.70
2022-08-02T16:34:08.713Z,52.60
2022-08-02T16:36:35.252Z,52.40
2022-08-02T16:39:01.772Z,52.40
2022-08-02T16:41:45.597Z,52.30
2022-08-02T16:44:28.948Z,52.20
2022-08-02T16:46:56.478Z,52.00
2022-08-02T16:50:06.435Z,51.80
2022-08-02T16:52:13.725Z,51.70
2022-08-02T16:54:40.245Z,51.70
2022-08-02T16:57:06.788Z,51.70
2022-08-02T16:59:42.023Z,51.60
2022-08-02T17:02:19.823Z,51.70
2022-08-02T17:04:52.074Z,51.60
2022-08-02T17:08:08.691Z,51.60
2022-08-02T17:10:06.761Z,51.70
2022-08-02T17:12:35.849Z,51.50
2022-08-02T17:15:08.927Z,51.60
2022-08-02T17:17:48.908Z,51.60
2022-08-02T17:20:15.417Z,51.60
2022-08-02T17:22:44.244Z,51.60
2022-08-02T17:25:11.146Z,51.60
2022-08-02T17:27:37.786Z,51.60
2022-08-02T17:30:04.320Z,51.60
2022-08-02T17:32:37.477Z,51.60
2022-08-02T17:35:05.853Z,51.70
2022-08-02T17:37:41.257Z,51.60
2022-08-02T17:40:08.249Z,51.60
2022-08-02T17:42:36.189Z,51.60
2022-08-02T17:45:16.660Z,51.60
2022-08-02T17:48:04.628Z,51.60
2022-08-02T17:50:32.060Z,51.60
2022-08-02T17:52:59.009Z,51.60
2022-08-02T17:55:25.917Z,51.60
2022-08-02T17:57:58.607Z,51.60
2022-08-02T18:00:41.866Z,51.60
2022-08-02T18:03:12.208Z,51.60
2022-08-02T18:05:53.119Z,51.60
2022-08-02T18:08:22.828Z,51.60
2022-08-02T18:10:49.616Z,51.60
2022-08-02T18:13:16.150Z,51.60
2022-08-02T18:15:45.773Z,51.70
2022-08-02T18:18:12.455Z,51.70
2022-08-02T18:20:38.992Z,51.70
2022-08-02T18:23:10.892Z,51.70
2022-08-02T18:25:45.956Z,52.20
2022-08-02T18:28:15.376Z,51.60
2022-08-02T18:30:41.929Z,51.70
2022-08-02T18:33:58.269Z,51.60
2022-08-02T18:35:55.741Z,51.60
2022-08-02T18:38:22.444Z,51.60
2022-08-02T18:40:51.175Z,51.70
2022-08-02T18:43:17.923Z,51.60
2022-08-02T18:46:05.075Z,51.70
2022-08-02T18:48:31.149Z,51.60
2022-08-02T18:51:01.471Z,51.60
2022-08-02T18:53:41.359Z,51.60
2022-08-02T18:56:08.896Z,51.60
2022-08-02T18:58:35.421Z,51.60
2022-08-02T19:01:05.060Z,51.60
2022-08-02T19:03:41.212Z,51.60
2022-08-02T19:06:15.898Z,51.60
2022-08-02T19:08:46.367Z,51.60
2022-08-02T19:11:34.907Z,51.60
2022-08-02T19:14:01.958Z,51.60
2022-08-02T19:16:37.124Z,51.60
2022-08-02T19:19:04.464Z,51.70
2022-08-02T19:22:17.808Z,51.70
2022-08-02T19:24:17.494Z,51.70
2022-08-02T19:26:52.015Z,51.70
2022-08-02T19:29:19.235Z,51.80
2022-08-02T19:32:05.743Z,51.70
2022-08-02T19:34:52.240Z,51.80
2022-08-02T19:37:18.776Z,51.80
2022-08-02T19:39:45.985Z,51.80
2022-08-02T19:42:12.652Z,51.80
2022-08-02T19:44:45.687Z,51.90
2022-08-02T19:47:12.380Z,51.90
2022-08-02T19:49:45.591Z,51.80
2022-08-02T19:52:21.682Z,51.90
2022-08-02T19:54:55.455Z,51.90
2022-08-02T19:57:23.248Z,51.90
2022-08-02T19:59:51.628Z,51.90
2022-08-02T20:05:16.128Z,52.00
2022-08-02T20:07:54.690Z,52.10
2022-08-02T20:10:24.853Z,52.00
2022-08-02T20:12:51.607Z,52.10
2022-08-02T20:15:18.119Z,52.10
2022-08-02T20:17:47.536Z,52.20
2022-08-02T20:20:15.536Z,52.20
2022-08-02T20:22:42.097Z,52.30
2022-08-02T20:25:15.976Z,52.30
2022-08-02T20:27:51.272Z,52.30
2022-08-02T20:30:18.011Z,52.40
2022-08-02T20:32:53.076Z,52.40
2022-08-02T20:35:24.008Z,52.40
2022-08-02T20:38:00.011Z,52.50
2022-08-02T20:40:28.871Z,52.50
2022-08-02T20:42:55.392Z,52.50
2022-08-02T20:45:21.922Z,52.50
2022-08-02T20:47:51.032Z,52.60
2022-08-02T20:50:19.031Z,52.60
2022-08-02T20:52:54.526Z,52.60
2022-08-02T20:55:21.047Z,52.60
2022-08-02T20:58:00.924Z,52.50
2022-08-02T21:00:28.187Z,52.60
2022-08-02T21:02:55.373Z,52.60
2022-08-02T21:05:26.727Z,52.60
2022-08-02T21:08:09.575Z,52.60
2022-08-02T21:10:40.765Z,52.60
2022-08-02T21:13:19.024Z,52.60
2022-08-02T21:15:49.791Z,52.60
2022-08-02T21:18:27.400Z,52.60
2022-08-02T21:21:02.053Z,52.60
2022-08-02T21:23:28.596Z,52.60
2022-08-02T21:25:57.565Z,52.60
2022-08-02T21:28:24.347Z,52.70
2022-08-02T21:31:01.683Z,52.70
2022-08-02T21:33:29.436Z,52.70
2022-08-02T21:36:15.939Z,52.80
2022-08-02T21:38:42.771Z,52.70
2022-08-02T21:41:13.720Z,52.80
2022-08-02T21:43:40.508Z,52.80
2022-08-02T21:46:10.558Z,52.80
2022-08-02T21:48:41.100Z,52.80
2022-08-02T21:51:07.618Z,52.80
2022-08-02T21:53:43.109Z,53.40
2022-08-02T21:56:09.894Z,52.80
2022-08-02T21:58:36.471Z,52.90
2022-08-02T22:01:02.983Z,52.90
2022-08-02T22:03:29.606Z,52.90
2022-08-02T22:05:56.216Z,53.00
2022-08-02T22:08:22.750Z,52.90
2022-08-02T22:10:50.121Z,53.00
2022-08-02T22:13:17.956Z,53.00
2022-08-02T22:15:46.614Z,52.90
2022-08-02T22:18:14.494Z,53.00
2022-08-02T22:20:41.542Z,52.90
2022-08-02T22:23:13.046Z,52.90
2022-08-02T22:25:49.275Z,52.90
2022-08-02T22:28:37.311Z,53.00
2022-08-02T22:31:03.087Z,53.00
2022-08-02T22:33:33.148Z,53.00
2022-08-02T22:36:00.115Z,53.10
2022-08-02T22:38:26.648Z,53.00
2022-08-02T22:40:53.183Z,53.10
2022-08-02T22:46:09.202Z,53.10
2022-08-02T22:48:35.812Z,53.10
2022-08-02T22:51:06.655Z,53.10
2022-08-02T22:56:19.746Z,53.20
2022-08-02T22:59:08.298Z,52.00
2022-08-02T22:59:10.012Z,53.20
2022-08-02T23:01:35.128Z,53.10
2022-08-02T23:04:01.682Z,53.30
2022-08-02T23:06:28.204Z,53.30
2022-08-02T23:08:54.744Z,53.20
2022-08-02T23:11:21.261Z,53.20
2022-08-02T23:13:47.774Z,53.30
2022-08-02T23:16:14.295Z,53.30
2022-08-02T23:18:40.827Z,53.30
2022-08-02T23:21:07.344Z,53.30
2022-08-02T23:23:33.867Z,53.30
2022-08-02T23:26:00.381Z,53.30
2022-08-02T23:28:26.893Z,53.30
2022-08-02T23:30:53.409Z,53.30
2022-08-02T23:33:19.920Z,53.30
2022-08-02T23:35:46.426Z,53.30
2022-08-02T23:38:12.941Z,53.30
2022-08-02T23:40:41.263Z,53.30
2022-08-02T23:43:13.748Z,53.30
2022-08-02T23:45:41.168Z,53.30
2022-08-02T23:48:07.676Z,53.40
2022-08-02T23:50:34.186Z,53.30
2022-08-02T23:53:00.766Z,53.40
2022-08-02T23:55:27.293Z,53.40
2022-08-02T23:57:53.803Z,53.30
